createdAt,value
2018-09-21T00:00:53.140Z,56.07
2018-09-21T00:03:21.911Z,55.65
2018-09-21T00:05:50.593Z,55.70
2018-09-21T00:08:20.090Z,56.01
2018-09-21T00:10:49.091Z,56.41
2018-09-21T00:13:18.047Z,55.79
2018-09-21T00:15:46.497Z,56.23
2018-09-21T00:18:15.451Z,56.03
2018-09-21T00:20:45.093Z,56.56
2018-09-21T00:23:13.989Z,56.61
2018-09-21T00:25:42.615Z,57.00
2018-09-21T00:28:11.765Z,57.18
2018-09-21T00:30:40.519Z,56.69
2018-09-21T00:33:09.032Z,56.78
2018-09-21T00:35:37.853Z,56.64
2018-09-21T00:38:06.895Z,56.56
2018-09-21T00:40:35.809Z,56.95
2018-09-21T00:43:09.956Z,56.49
2018-09-21T00:45:39.257Z,56.80
2018-09-21T00:48:08.382Z,57.43
2018-09-21T00:50:37.371Z,57.66
2018-09-21T00:53:06.487Z,57.49
2018-09-21T00:55:35.023Z,58.09
2018-09-21T00:58:04.005Z,57.90
2018-09-21T01:00:32.937Z,57.22
2018-09-21T01:03:01.529Z,56.93
2018-09-21T01:05:30.313Z,56.87
2018-09-21T01:07:59.432Z,57.23
2018-09-21T01:10:28.091Z,57.23
2018-09-21T01:12:57.143Z,58.13
2018-09-21T01:15:27.209Z,58.04
2018-09-21T01:17:56.038Z,58.07
2018-09-21T01:20:25.711Z,58.19
2018-09-21T01:22:55.343Z,58.83
2018-09-21T01:25:24.379Z,59.13
2018-09-21T01:27:53.255Z,59.39
2018-09-21T01:30:21.974Z,59.80
2018-09-21T01:32:51.103Z,59.14
2018-09-21T01:35:20.023Z,59.44
2018-09-21T01:37:49.166Z,59.64
2018-09-21T01:40:18.011Z,59.13
2018-09-21T01:42:46.992Z,59.41
2018-09-21T01:45:16.197Z,59.62
2018-09-21T01:47:44.911Z,59.54
2018-09-21T01:50:13.968Z,59.20
2018-09-21T01:52:43.034Z,59.11
2018-09-21T01:55:11.974Z,59.06
2018-09-21T01:57:40.811Z,59.21
2018-09-21T02:00:09.838Z,59.54
2018-09-21T02:02:38.928Z,60.10
2018-09-21T02:05:07.776Z,59.70
2018-09-21T02:07:36.922Z,59.41
2018-09-21T02:10:05.717Z,59.45
2018-09-21T02:12:34.831Z,59.72
2018-09-21T02:15:03.531Z,59.63
2018-09-21T02:17:32.530Z,60.10
2018-09-21T02:20:01.384Z,59.78
2018-09-21T02:22:30.290Z,59.55
2018-09-21T02:24:59.046Z,60.29
2018-09-21T02:27:27.767Z,60.47
2018-09-21T02:29:56.605Z,60.95
2018-09-21T02:32:25.011Z,60.93
2018-09-21T02:34:53.822Z,60.43
2018-09-21T02:37:22.429Z,60.45
2018-09-21T02:39:51.222Z,60.34
2018-09-21T02:42:20.027Z,60.78
2018-09-21T02:44:48.486Z,60.57
2018-09-21T02:47:17.847Z,60.46
2018-09-21T02:49:46.579Z,60.38
2018-09-21T02:52:15.736Z,60.45
2018-09-21T02:54:45.606Z,60.74
2018-09-21T02:57:14.377Z,60.80
2018-09-21T02:59:43.230Z,61.02
2018-09-21T03:02:11.600Z,60.93
2018-09-21T03:04:45.247Z,60.55
2018-09-21T03:07:14.215Z,60.79
2018-09-21T03:09:42.862Z,60.30
2018-09-21T03:12:11.381Z,60.64
2018-09-21T03:14:40.045Z,60.47
2018-09-21T03:17:08.628Z,60.69
2018-09-21T03:19:37.099Z,60.72
2018-09-21T03:22:05.818Z,60.52
2018-09-21T03:24:39.303Z,59.99
2018-09-21T03:27:08.358Z,60.56
2018-09-21T03:29:36.915Z,60.02
2018-09-21T03:32:05.453Z,60.53
2018-09-21T03:34:33.959Z,59.69
2018-09-21T03:37:04.686Z,59.63
2018-09-21T03:39:33.697Z,59.87
2018-09-21T03:42:02.864Z,59.88
2018-09-21T03:44:31.707Z,59.65
2018-09-21T03:47:01.213Z,59.57
2018-09-21T03:49:30.459Z,59.73
2018-09-21T03:51:59.385Z,59.86
2018-09-21T03:54:28.443Z,59.31
2018-09-21T03:56:57.457Z,60.05
2018-09-21T03:59:26.415Z,59.54
2018-09-21T04:01:54.931Z,60.04
2018-09-21T04:04:23.680Z,59.56
2018-09-21T04:06:52.120Z,59.73
2018-09-21T04:09:20.644Z,60.23
2018-09-21T04:11:49.268Z,59.73
2018-09-21T04:14:18.182Z,60.30
2018-09-21T04:16:47.047Z,60.36
2018-09-21T04:19:15.596Z,59.82
2018-09-21T04:21:44.714Z,59.87
2018-09-21T04:24:13.651Z,59.97
2018-09-21T04:26:42.299Z,60.69
2018-09-21T04:29:11.685Z,60.32
2018-09-21T04:31:40.520Z,60.52
2018-09-21T04:34:09.076Z,60.28
2018-09-21T04:36:37.527Z,59.90
2018-09-21T04:39:08.966Z,60.31
2018-09-21T04:41:38.152Z,60.50
2018-09-21T04:44:07.059Z,60.05
2018-09-21T04:46:35.546Z,60.63
2018-09-21T04:49:04.199Z,60.69
2018-09-21T04:51:32.896Z,59.88
2018-09-21T04:54:01.518Z,60.02
2018-09-21T04:56:30.087Z,60.10
2018-09-21T04:58:59.292Z,60.09
2018-09-21T05:01:28.146Z,60.34
2018-09-21T05:03:56.815Z,61.03
2018-09-21T05:06:25.464Z,61.06
2018-09-21T05:08:54.462Z,60.81
2018-09-21T05:11:23.119Z,61.30
2018-09-21T05:13:52.463Z,60.86
2018-09-21T05:16:21.000Z,61.27
2018-09-21T05:18:49.547Z,61.56
2018-09-21T05:21:18.242Z,61.13
2018-09-21T05:23:46.968Z,60.85
2018-09-21T05:26:15.964Z,60.52
2018-09-21T05:28:44.738Z,60.53
2018-09-21T05:31:13.330Z,60.65
2018-09-21T05:33:41.970Z,60.49
2018-09-21T05:36:11.696Z,59.82
2018-09-21T05:38:40.845Z,60.11
2018-09-21T05:41:09.466Z,60.14
2018-09-21T05:43:38.099Z,60.04
2018-09-21T05:46:06.964Z,59.44
2018-09-21T05:48:35.611Z,59.65
2018-09-21T05:51:04.454Z,59.12
2018-09-21T05:53:33.594Z,59.15
2018-09-21T05:56:02.096Z,59.24
2018-09-21T05:58:30.891Z,59.54
2018-09-21T06:00:59.802Z,59.07
2018-09-21T06:03:28.363Z,59.02
2018-09-21T06:05:57.109Z,59.00
2018-09-21T06:08:40.511Z,59.14
2018-09-21T06:11:09.070Z,58.84
2018-09-21T06:13:39.040Z,59.00
2018-09-21T06:16:08.003Z,58.79
2018-09-21T06:18:36.594Z,58.59
2018-09-21T06:21:06.749Z,57.49
2018-09-21T06:23:35.387Z,57.53
2018-09-21T06:26:04.018Z,56.94
2018-09-21T06:28:32.938Z,57.21
2018-09-21T06:31:01.732Z,56.95
2018-09-21T06:33:30.608Z,56.29
2018-09-21T06:35:59.097Z,56.22
2018-09-21T06:38:28.093Z,56.29
2018-09-21T06:40:57.047Z,56.28
2018-09-21T06:43:25.846Z,56.13
2018-09-21T06:45:54.400Z,55.78
2018-09-21T06:48:23.908Z,54.94
2018-09-21T06:50:52.852Z,55.39
2018-09-21T06:53:21.444Z,55.05
2018-09-21T06:55:50.390Z,55.15
2018-09-21T06:58:21.262Z,54.96
2018-09-21T07:00:50.306Z,55.12
2018-09-21T07:03:19.102Z,55.09
2018-09-21T07:05:48.144Z,54.31
2018-09-21T07:08:16.726Z,54.74
2018-09-21T07:10:45.412Z,54.08
2018-09-21T07:13:14.018Z,54.46
2018-09-21T07:15:42.844Z,54.38
2018-09-21T07:18:11.965Z,53.97
2018-09-21T07:20:41.006Z,54.32
2018-09-21T07:23:12.291Z,53.95
2018-09-21T07:25:41.388Z,53.80
2018-09-21T07:28:10.480Z,53.47
2018-09-21T07:30:39.330Z,53.49
2018-09-21T07:33:08.141Z,53.50
2018-09-21T07:35:36.706Z,53.82
2018-09-21T07:38:05.755Z,53.02
2018-09-21T07:40:34.958Z,52.38
2018-09-21T07:43:03.881Z,52.87
2018-09-21T07:45:32.675Z,52.13
2018-09-21T07:48:01.504Z,52.48
2018-09-21T07:50:30.551Z,52.41
2018-09-21T07:52:59.449Z,51.88
2018-09-21T07:55:28.542Z,51.58
2018-09-21T07:57:57.397Z,51.65
2018-09-21T08:00:26.263Z,51.50
2018-09-21T08:02:55.047Z,51.69
2018-09-21T08:05:28.803Z,51.10
2018-09-21T08:08:00.260Z,50.69
2018-09-21T08:10:29.228Z,50.10
2018-09-21T08:12:58.190Z,50.10
2018-09-21T08:15:27.114Z,49.69
2018-09-21T08:17:56.152Z,49.67
2018-09-21T08:20:25.167Z,49.57
2018-09-21T08:22:53.682Z,49.32
2018-09-21T08:25:23.883Z,48.90
2018-09-21T08:27:52.758Z,49.25
2018-09-21T08:30:21.231Z,48.47
2018-09-21T08:32:50.477Z,48.16
2018-09-21T08:35:20.850Z,47.78
2018-09-21T08:37:49.539Z,47.66
2018-09-21T08:40:20.241Z,47.82
2018-09-21T08:42:48.924Z,46.72
2018-09-21T08:45:17.424Z,46.39
2018-09-21T08:47:46.377Z,46.12
2018-09-21T08:52:58.370Z,44.84
2018-09-21T08:58:08.868Z,43.86
2018-09-21T09:00:38.831Z,43.23
2018-09-21T09:03:08.151Z,43.13
2018-09-21T09:05:36.827Z,43.46
2018-09-21T09:08:05.535Z,43.21
2018-09-21T09:10:34.428Z,42.67
2018-09-21T09:13:02.981Z,42.37
2018-09-21T09:15:31.766Z,41.51
2018-09-21T09:18:15.148Z,41.37
2018-09-21T09:20:43.684Z,40.30
2018-09-21T09:23:12.814Z,40.92
2018-09-21T09:25:42.098Z,40.50
2018-09-21T09:28:10.695Z,40.28
2018-09-21T09:30:39.831Z,40.89
2018-09-21T09:33:09.108Z,41.00
2018-09-21T09:38:38.383Z,41.88
2018-09-21T09:41:07.775Z,42.56
2018-09-21T09:43:36.979Z,42.19
2018-09-21T09:46:05.764Z,43.36
2018-09-21T09:48:34.400Z,42.90
2018-09-21T09:51:03.691Z,42.83
2018-09-21T09:53:32.870Z,43.08
2018-09-21T09:56:01.534Z,42.82
2018-09-21T09:58:32.421Z,42.89
2018-09-21T10:01:01.123Z,43.10
2018-09-21T10:03:30.540Z,40.98
2018-09-21T10:05:58.966Z,39.91
2018-09-21T10:08:27.894Z,38.93
2018-09-21T10:10:56.951Z,38.91
2018-09-21T10:16:23.305Z,38.79
2018-09-21T10:18:52.462Z,38.46
2018-09-21T10:21:21.264Z,37.76
2018-09-21T10:23:51.531Z,35.92
2018-09-21T10:26:30.660Z,33.67
2018-09-21T10:29:00.070Z,33.03
2018-09-21T10:31:28.698Z,32.83
2018-09-21T10:33:57.391Z,33.29
2018-09-21T10:36:27.212Z,32.29
2018-09-21T10:38:56.672Z,32.62
2018-09-21T10:41:25.547Z,33.59
2018-09-21T10:43:54.734Z,32.50
2018-09-21T10:46:24.136Z,32.28
2018-09-21T10:48:54.220Z,33.10
2018-09-21T10:51:22.791Z,33.59
2018-09-21T10:53:51.586Z,33.28
2018-09-21T10:56:20.848Z,34.12
2018-09-21T10:58:49.496Z,33.96
2018-09-21T11:01:18.754Z,34.82
2018-09-21T11:03:47.661Z,34.65
2018-09-21T11:06:16.430Z,35.17
2018-09-21T11:08:45.188Z,35.48
2018-09-21T11:11:13.658Z,35.67
2018-09-21T11:13:42.450Z,35.23
2018-09-21T11:16:11.209Z,35.89
2018-09-21T11:18:40.001Z,36.21
2018-09-21T11:21:08.697Z,36.65
2018-09-21T11:23:37.656Z,36.69
2018-09-21T11:26:06.216Z,35.68
2018-09-21T11:28:35.290Z,36.10
2018-09-21T11:31:04.295Z,36.62
2018-09-21T11:33:33.848Z,36.56
2018-09-21T11:36:02.459Z,36.76
2018-09-21T11:38:31.350Z,37.05
2018-09-21T11:41:00.151Z,37.90
2018-09-21T11:43:29.680Z,37.73
2018-09-21T11:45:58.519Z,38.46
2018-09-21T11:48:27.200Z,38.89
2018-09-21T11:50:55.967Z,39.13
2018-09-21T11:53:25.289Z,39.03
2018-09-21T11:55:54.076Z,39.67
2018-09-21T11:58:22.848Z,39.63
2018-09-21T12:00:51.499Z,40.08
2018-09-21T12:03:20.371Z,39.32
2018-09-21T12:05:49.982Z,39.75
2018-09-21T12:08:18.822Z,40.22
2018-09-21T12:10:47.254Z,40.81
2018-09-21T12:13:15.972Z,40.78
2018-09-21T12:15:44.806Z,40.56
2018-09-21T12:18:13.900Z,40.72
2018-09-21T12:20:42.788Z,41.93
2018-09-21T12:23:11.645Z,41.37
2018-09-21T12:25:40.834Z,41.70
2018-09-21T12:28:09.591Z,41.19
2018-09-21T12:30:38.760Z,41.91
2018-09-21T12:33:08.644Z,42.04
2018-09-21T12:35:37.991Z,41.51
2018-09-21T12:38:06.795Z,42.16
2018-09-21T12:40:36.051Z,41.97
2018-09-21T12:43:09.943Z,42.01
2018-09-21T12:45:39.627Z,41.36
2018-09-21T12:48:08.534Z,41.54
2018-09-21T12:50:39.161Z,41.32
2018-09-21T12:53:08.013Z,41.40
2018-09-21T12:55:38.920Z,41.22
2018-09-21T12:58:08.028Z,40.56
2018-09-21T13:00:41.698Z,41.10
2018-09-21T13:03:10.535Z,40.25
2018-09-21T13:05:43.599Z,40.01
2018-09-21T13:08:12.693Z,38.46
2018-09-21T13:10:41.276Z,38.76
2018-09-21T13:13:10.146Z,38.43
2018-09-21T13:15:38.998Z,38.34
2018-09-21T13:18:08.025Z,38.85
2018-09-21T13:20:36.878Z,38.01
2018-09-21T13:23:05.762Z,38.63
2018-09-21T13:25:34.607Z,37.94
2018-09-21T13:28:03.553Z,36.23
2018-09-21T13:30:32.436Z,36.11
2018-09-21T13:33:01.383Z,35.62
2018-09-21T13:35:29.934Z,34.74
2018-09-21T13:37:58.868Z,34.91
2018-09-21T13:40:27.718Z,34.38
2018-09-21T13:42:56.436Z,35.41
2018-09-21T13:45:25.540Z,33.85
2018-09-21T13:47:54.995Z,33.74
2018-09-21T13:50:23.962Z,34.32
2018-09-21T13:52:53.008Z,34.64
2018-09-21T13:55:21.571Z,33.47
2018-09-21T13:57:51.382Z,33.52
2018-09-21T14:00:20.464Z,33.95
2018-09-21T14:02:48.993Z,33.14
2018-09-21T14:05:17.903Z,33.19
2018-09-21T14:07:46.708Z,32.86
2018-09-21T14:10:15.940Z,33.25
2018-09-21T14:12:44.836Z,32.47
2018-09-21T14:15:28.248Z,32.25
2018-09-21T14:17:58.371Z,31.77
2018-09-21T14:20:28.351Z,32.02
2018-09-21T14:22:57.034Z,31.86
2018-09-21T14:25:26.666Z,32.70
2018-09-21T14:27:55.328Z,32.76
2018-09-21T14:30:24.422Z,32.58
2018-09-21T14:32:55.370Z,33.27
2018-09-21T14:35:24.734Z,33.01
2018-09-21T14:37:53.538Z,34.05
2018-09-21T14:40:22.770Z,33.97
2018-09-21T14:42:52.064Z,34.07
2018-09-21T14:45:21.055Z,36.20
2018-09-21T14:47:49.545Z,36.58
2018-09-21T14:50:18.404Z,35.82
2018-09-21T14:52:46.864Z,36.12
2018-09-21T14:55:17.382Z,34.45
2018-09-21T14:57:46.308Z,32.54
2018-09-21T15:00:14.891Z,32.73
2018-09-21T15:02:43.740Z,34.66
2018-09-21T15:05:12.792Z,36.39
2018-09-21T15:07:41.828Z,37.77
2018-09-21T15:10:12.498Z,38.63
2018-09-21T15:12:42.602Z,41.95
2018-09-21T15:15:11.843Z,45.39
2018-09-21T15:17:41.043Z,47.90
2018-09-21T15:20:11.910Z,49.97
2018-09-21T15:22:41.126Z,52.61
2018-09-21T15:25:09.392Z,55.16
2018-09-21T15:27:38.140Z,55.98
2018-09-21T15:30:07.462Z,57.90
2018-09-21T15:32:36.486Z,59.16
2018-09-21T15:35:05.112Z,60.73
2018-09-21T15:37:34.092Z,61.96
2018-09-21T15:40:03.627Z,62.99
2018-09-21T15:42:32.300Z,62.63
2018-09-21T15:45:02.376Z,63.66
2018-09-21T15:47:31.495Z,63.32
2018-09-21T15:50:00.056Z,63.46
2018-09-21T15:52:28.576Z,62.70
2018-09-21T15:54:57.604Z,62.70
2018-09-21T15:57:26.618Z,64.33
2018-09-21T15:59:55.431Z,65.34
2018-09-21T16:02:23.874Z,65.69
2018-09-21T16:04:52.628Z,65.08
2018-09-21T16:07:21.416Z,65.46
2018-09-21T16:09:50.233Z,65.73
2018-09-21T16:12:19.310Z,65.50
2018-09-21T16:14:48.462Z,65.64
2018-09-21T16:17:17.177Z,65.44
2018-09-21T16:19:46.209Z,65.24
2018-09-21T16:22:14.657Z,65.29
2018-09-21T16:24:42.630Z,65.71
2018-09-21T16:27:10.532Z,65.56
2018-09-21T16:29:39.192Z,63.78
2018-09-21T16:32:07.757Z,64.04
2018-09-21T16:34:36.765Z,65.02
2018-09-21T16:37:05.894Z,65.65
2018-09-21T16:39:35.350Z,65.91
2018-09-21T16:42:04.527Z,62.81
2018-09-21T16:44:33.177Z,63.69
2018-09-21T16:47:01.926Z,63.65
2018-09-21T16:49:30.690Z,62.57
2018-09-21T16:51:59.752Z,62.48
2018-09-21T16:54:28.602Z,62.29
2018-09-21T16:56:57.371Z,62.75
2018-09-21T16:59:26.726Z,62.68
2018-09-21T17:01:55.748Z,62.57
2018-09-21T17:04:24.373Z,64.44
2018-09-21T17:06:52.817Z,65.02
2018-09-21T17:09:21.730Z,64.24
2018-09-21T17:11:50.428Z,65.58
2018-09-21T17:14:19.051Z,65.81
2018-09-21T17:16:48.080Z,65.10
2018-09-21T17:19:16.929Z,65.11
2018-09-21T17:21:45.872Z,65.02
2018-09-21T17:24:14.773Z,65.06
2018-09-21T17:26:43.521Z,63.68
2018-09-21T17:29:12.846Z,64.47
2018-09-21T17:31:42.060Z,65.20
2018-09-21T17:34:10.644Z,65.29
2018-09-21T17:36:39.280Z,65.89
2018-09-21T17:39:10.155Z,66.45
2018-09-21T17:41:38.798Z,67.58
2018-09-21T17:44:07.381Z,68.14
2018-09-21T17:46:35.988Z,68.19
2018-09-21T17:49:04.687Z,68.21
2018-09-21T17:51:34.005Z,69.16
2018-09-21T17:54:02.975Z,69.36
2018-09-21T17:56:31.553Z,70.83
2018-09-21T17:59:00.079Z,70.57
2018-09-21T18:01:28.699Z,71.28
2018-09-21T18:04:04.675Z,71.02
2018-09-21T18:06:33.433Z,69.45
2018-09-21T18:09:02.393Z,69.02
2018-09-21T18:11:31.353Z,69.42
2018-09-21T18:14:00.239Z,69.69
2018-09-21T18:16:29.099Z,68.91
2018-09-21T18:18:57.924Z,69.06
2018-09-21T18:21:27.034Z,69.08
2018-09-21T18:23:55.866Z,69.46
2018-09-21T18:26:24.734Z,69.68
2018-09-21T18:28:53.774Z,70.39
2018-09-21T18:31:23.042Z,69.90
2018-09-21T18:33:52.104Z,69.96
2018-09-21T18:36:21.182Z,70.53
2018-09-21T18:38:49.926Z,69.79
2018-09-21T18:41:18.830Z,70.06
2018-09-21T18:43:47.672Z,69.75
2018-09-21T18:46:16.222Z,70.51
2018-09-21T18:48:44.968Z,70.49
2018-09-21T18:51:13.615Z,70.72
2018-09-21T18:53:42.393Z,70.43
2018-09-21T18:56:12.011Z,70.32
2018-09-21T18:58:41.518Z,70.91
2018-09-21T19:01:10.103Z,70.66
2018-09-21T19:03:39.065Z,70.82
2018-09-21T19:06:07.885Z,70.72
2018-09-21T19:08:36.860Z,71.28
2018-09-21T19:11:05.453Z,70.95
2018-09-21T19:13:34.036Z,71.33
2018-09-21T19:16:02.724Z,72.28
2018-09-21T19:18:31.294Z,72.20
2018-09-21T19:21:00.437Z,71.94
2018-09-21T19:23:29.143Z,71.24
2018-09-21T19:25:57.835Z,71.31
2018-09-21T19:28:26.823Z,71.97
2018-09-21T19:30:55.524Z,71.52
2018-09-21T19:33:24.656Z,71.18
2018-09-21T19:35:53.615Z,70.47
2018-09-21T19:38:22.721Z,70.02
2018-09-21T19:40:51.426Z,70.49
2018-09-21T19:43:20.101Z,69.80
2018-09-21T19:45:48.890Z,70.29
2018-09-21T19:48:18.142Z,69.63
2018-09-21T19:50:46.878Z,69.80
2018-09-21T19:53:15.582Z,69.31
2018-09-21T19:55:44.306Z,68.85
2018-09-21T19:58:12.953Z,69.17
2018-09-21T20:00:41.734Z,69.72
2018-09-21T20:03:10.508Z,69.19
2018-09-21T20:05:39.219Z,69.33
2018-09-21T20:08:07.892Z,69.23
2018-09-21T20:10:36.487Z,68.70
2018-09-21T20:13:05.261Z,68.31
2018-09-21T20:15:33.895Z,68.53
2018-09-21T20:18:02.612Z,68.91
2018-09-21T20:20:31.397Z,67.81
2018-09-21T20:23:14.703Z,68.24
2018-09-21T20:25:43.309Z,68.66
2018-09-21T20:28:12.001Z,69.22
2018-09-21T20:31:49.486Z,67.76
2018-09-21T20:34:18.283Z,68.21
2018-09-21T20:36:46.969Z,68.73
2018-09-21T20:39:15.534Z,68.51
2018-09-21T20:41:44.204Z,68.54
2018-09-21T20:44:17.999Z,68.19
2018-09-21T20:46:47.720Z,68.18
2018-09-21T20:49:16.647Z,68.73
2018-09-21T20:51:45.846Z,68.51
2018-09-21T20:54:15.176Z,68.09
2018-09-21T20:56:44.031Z,68.02
2018-09-21T20:59:13.322Z,68.01
2018-09-21T21:01:41.931Z,68.39
2018-09-21T21:04:10.737Z,67.75
2018-09-21T21:06:39.824Z,68.19
2018-09-21T21:09:09.658Z,67.62
2018-09-21T21:11:38.582Z,67.42
2018-09-21T21:14:07.371Z,67.83
2018-09-21T21:16:36.869Z,67.22
2018-09-21T21:19:06.211Z,66.72
2018-09-21T21:21:35.329Z,66.46
2018-09-21T21:24:04.325Z,66.63
2018-09-21T21:26:32.968Z,66.55
2018-09-21T21:29:01.557Z,66.60
2018-09-21T21:31:30.006Z,66.52
2018-09-21T21:33:58.591Z,66.02
2018-09-21T21:36:27.341Z,65.89
2018-09-21T21:38:55.920Z,65.47
2018-09-21T21:41:24.631Z,65.66
2018-09-21T21:43:53.272Z,65.18
2018-09-21T21:46:22.965Z,64.76
2018-09-21T21:48:51.588Z,63.59
2018-09-21T21:51:20.136Z,64.02
2018-09-21T21:53:48.597Z,64.03
2018-09-21T21:56:17.100Z,64.17
2018-09-21T21:58:45.600Z,64.01
2018-09-21T22:01:19.366Z,63.03
2018-09-21T22:03:48.039Z,63.18
2018-09-21T22:06:16.529Z,63.41
2018-09-21T22:08:45.219Z,62.79
2018-09-21T22:11:18.792Z,62.17
2018-09-21T22:13:52.554Z,62.50
2018-09-21T22:16:21.078Z,61.37
2018-09-21T22:18:49.830Z,61.88
2018-09-21T22:21:18.267Z,61.53
2018-09-21T22:23:47.016Z,61.79
2018-09-21T22:26:15.574Z,61.51
2018-09-21T22:28:44.055Z,61.31
2018-09-21T22:31:13.218Z,61.00
2018-09-21T22:33:43.370Z,61.11
2018-09-21T22:36:12.207Z,61.09
2018-09-21T22:38:41.568Z,61.00
2018-09-21T22:41:10.581Z,60.61
2018-09-21T22:43:39.324Z,61.35
2018-09-21T22:46:08.055Z,60.33
2018-09-21T22:48:36.787Z,60.49
2018-09-21T22:51:05.912Z,60.65
2018-09-21T22:53:34.468Z,60.25
2018-09-21T22:56:03.008Z,60.05
2018-09-21T22:58:31.632Z,59.36
2018-09-21T23:01:00.256Z,59.10
2018-09-21T23:03:30.370Z,59.29
2018-09-21T23:06:00.944Z,59.31
2018-09-21T23:08:30.991Z,59.30
2018-09-21T23:10:59.588Z,59.08
2018-09-21T23:13:28.177Z,58.75
2018-09-21T23:15:56.782Z,58.82
2018-09-21T23:18:25.260Z,58.25
2018-09-21T23:20:53.830Z,58.31
2018-09-21T23:23:22.322Z,57.58
2018-09-21T23:25:51.276Z,57.40
2018-09-21T23:28:20.232Z,57.22
2018-09-21T23:30:48.756Z,57.36
2018-09-21T23:33:17.242Z,57.19
2018-09-21T23:35:45.872Z,57.35
2018-09-21T23:38:14.466Z,57.60
2018-09-21T23:40:42.988Z,57.98
2018-09-21T23:43:11.490Z,57.80
2018-09-21T23:45:40.066Z,57.92
2018-09-21T23:48:08.970Z,57.54
2018-09-21T23:50:37.950Z,57.40
2018-09-21T23:53:06.500Z,57.12
2018-09-21T23:55:35.359Z,57.37
2018-09-21T23:58:03.951Z,56.92
